Terminal Aerodrome Forecast
Issued by NWS Shreveport, LA

Home | Current Version | Previous Version | Text Only | Print | Product List | Glossary On
Versions: 1 2 3 4 5 6 7 8 9 10 11 12 13 14 15 16 17 18
000
FTUS44 KSHV 301743
TAFMLU
TAF
KMLU 301743Z 3018/3118 VRB04KT P6SM SCT020 OVC050
      TEMPO 3018/3019 BKN020
     FM302100 24005KT P6SM SCT030 BKN050
     FM310300 18003KT P6SM FEW035 SCT200
     FM311200 20006KT P6SM BKN020 OVC150
      TEMPO 3112/3115 5SM BR OVC015
     FM311500 23008KT P6SM BKN015 OVC030=

USA.gov is the U.S. government's official web portal to all federal, state and local government web resources and services.